Blaydon-on-Tyne, United Kingdom
Current Conditions -  °F | °C
As of 2:20 PM on Thursday 29 Jan 2015 (Local Time) from EGNT Reporting Station
Few Clouds Few Clouds  
Wind Chill: -5°   Ceiling: Unl
Heat Index:   Visibility: 6mi
Dew Point: -1°   Wind: 16mph
Humidity: 87%   Direction: 270°W
Pressure: 28.7"   Gusts: NA
Location:  54.96°N, 1.72°W
Report Text: EGNT 291420Z 27014KT 9999 FEW015 01/M01 Q0972
Loading
Personal Weather Stations






























Interactive Weather Map New forecast layout! Learn more

10-Day Weather Forecast

Advertisements
Track Severe Weather on mobile